sensor_id;sensor_type;location;lat;lon;timestamp;temperature;humidity
50162;DHT22;36061;48.116;11.612;2023-12-20T00:02:20;6.30;99.90
50162;DHT22;36061;48.116;11.612;2023-12-20T00:04:48;6.30;99.90
50162;DHT22;36061;48.116;11.612;2023-12-20T00:07:16;6.30;99.90
50162;DHT22;36061;48.116;11.612;2023-12-20T00:09:43;6.30;99.90
50162;DHT22;36061;48.116;11.612;2023-12-20T00:12:12;6.20;99.90
50162;DHT22;36061;48.116;11.612;2023-12-20T00:14:39;6.20;99.90
50162;DHT22;36061;48.116;11.612;2023-12-20T00:17:06;6.20;99.90
50162;DHT22;36061;48.116;11.612;2023-12-20T00:19:33;6.30;99.90
50162;DHT22;36061;48.116;11.612;2023-12-20T00:22:01;6.20;99.90
50162;DHT22;36061;48.116;11.612;2023-12-20T00:24:28;6.20;99.90
50162;DHT22;36061;48.116;11.612;2023-12-20T00:26:55;6.20;99.90
50162;DHT22;36061;48.116;11.612;2023-12-20T00:29:24;6.20;99.90
50162;DHT22;36061;48.116;11.612;2023-12-20T00:31:51;6.20;99.90
50162;DHT22;36061;48.116;11.612;2023-12-20T00:34:19;6.20;99.90
50162;DHT22;36061;48.116;11.612;2023-12-20T00:36:46;6.30;99.90
50162;DHT22;36061;48.116;11.612;2023-12-20T00:39:13;6.40;99.90
50162;DHT22;36061;48.116;11.612;2023-12-20T00:41:41;6.50;99.90
50162;DHT22;36061;48.116;11.612;2023-12-20T00:44:08;6.50;99.50
50162;DHT22;36061;48.116;11.612;2023-12-20T00:46:37;6.60;99.30
50162;DHT22;36061;48.116;11.612;2023-12-20T00:49:04;6.70;99.00
50162;DHT22;36061;48.116;11.612;2023-12-20T00:51:31;6.70;98.70
50162;DHT22;36061;48.116;11.612;2023-12-20T00:53:59;6.80;98.30
50162;DHT22;36061;48.116;11.612;2023-12-20T00:56:26;6.80;98.20
50162;DHT22;36061;48.116;11.612;2023-12-20T00:58:53;6.80;97.90
50162;DHT22;36061;48.116;11.612;2023-12-20T01:01:21;6.80;97.70
50162;DHT22;36061;48.116;11.612;2023-12-20T01:03:50;6.80;97.60
50162;DHT22;36061;48.116;11.612;2023-12-20T01:06:18;6.90;97.60
50162;DHT22;36061;48.116;11.612;2023-12-20T01:08:46;6.90;97.60
50162;DHT22;36061;48.116;11.612;2023-12-20T01:11:13;7.00;97.50
50162;DHT22;36061;48.116;11.612;2023-12-20T01:13:40;7.00;97.50
50162;DHT22;36061;48.116;11.612;2023-12-20T01:16:11;6.90;97.90
50162;DHT22;36061;48.116;11.612;2023-12-20T01:18:38;6.90;97.80
50162;DHT22;36061;48.116;11.612;2023-12-20T01:21:07;7.00;97.90
50162;DHT22;36061;48.116;11.612;2023-12-20T01:23:34;6.90;98.00
50162;DHT22;36061;48.116;11.612;2023-12-20T01:26:02;6.90;98.00
50162;DHT22;36061;48.116;11.612;2023-12-20T01:28:30;6.90;98.10
50162;DHT22;36061;48.116;11.612;2023-12-20T01:30:58;6.90;98.30
50162;DHT22;36061;48.116;11.612;2023-12-20T01:33:25;6.80;98.50
50162;DHT22;36061;48.116;11.612;2023-12-20T01:35:52;6.80;98.80
50162;DHT22;36061;48.116;11.612;2023-12-20T01:38:21;6.90;99.00
50162;DHT22;36061;48.116;11.612;2023-12-20T01:40:48;6.90;99.00
50162;DHT22;36061;48.116;11.612;2023-12-20T01:43:15;6.90;99.30
50162;DHT22;36061;48.116;11.612;2023-12-20T01:45:43;6.90;99.40
50162;DHT22;36061;48.116;11.612;2023-12-20T01:48:16;6.90;99.60
50162;DHT22;36061;48.116;11.612;2023-12-20T01:50:44;6.90;99.70
50162;DHT22;36061;48.116;11.612;2023-12-20T01:53:12;6.90;99.60
50162;DHT22;36061;48.116;11.612;2023-12-20T01:55:42;6.90;99.60
50162;DHT22;36061;48.116;11.612;2023-12-20T01:58:10;6.90;99.70
50162;DHT22;36061;48.116;11.612;2023-12-20T02:00:39;6.90;99.60
50162;DHT22;36061;48.116;11.612;2023-12-20T02:03:06;6.90;99.50
50162;DHT22;36061;48.116;11.612;2023-12-20T02:05:34;6.80;99.50
50162;DHT22;36061;48.116;11.612;2023-12-20T02:08:02;6.80;99.70
50162;DHT22;36061;48.116;11.612;2023-12-20T02:10:31;6.90;99.60
50162;DHT22;36061;48.116;11.612;2023-12-20T02:13:00;6.90;99.40
50162;DHT22;36061;48.116;11.612;2023-12-20T02:15:27;7.00;99.40
50162;DHT22;36061;48.116;11.612;2023-12-20T02:17:55;7.00;99.50
50162;DHT22;36061;48.116;11.612;2023-12-20T02:20:22;7.00;99.50
50162;DHT22;36061;48.116;11.612;2023-12-20T02:22:51;7.00;99.60
50162;DHT22;36061;48.116;11.612;2023-12-20T02:25:18;7.00;99.60
50162;DHT22;36061;48.116;11.612;2023-12-20T02:27:46;7.10;99.70
50162;DHT22;36061;48.116;11.612;2023-12-20T02:30:14;7.10;99.70
50162;DHT22;36061;48.116;11.612;2023-12-20T02:32:41;7.10;99.60
50162;DHT22;36061;48.116;11.612;2023-12-20T02:35:09;7.10;99.80
50162;DHT22;36061;48.116;11.612;2023-12-20T02:37:36;7.10;99.80
50162;DHT22;36061;48.116;11.612;2023-12-20T02:40:06;7.20;99.90
50162;DHT22;36061;48.116;11.612;2023-12-20T02:42:34;7.20;99.90
50162;DHT22;36061;48.116;11.612;2023-12-20T02:45:01;7.20;99.90
50162;DHT22;36061;48.116;11.612;2023-12-20T02:47:28;7.10;99.90
50162;DHT22;36061;48.116;11.612;2023-12-20T02:49:56;7.20;99.90
50162;DHT22;36061;48.116;11.612;2023-12-20T02:52:24;7.20;99.90
50162;DHT22;36061;48.116;11.612;2023-12-20T02:54:51;7.20;99.90
50162;DHT22;36061;48.116;11.612;2023-12-20T02:57:20;7.20;99.90
50162;DHT22;36061;48.116;11.612;2023-12-20T02:59:48;7.20;99.90
50162;DHT22;36061;48.116;11.612;2023-12-20T03:02:15;7.20;99.90
50162;DHT22;36061;48.116;11.612;2023-12-20T03:04:42;7.10;99.90
50162;DHT22;36061;48.116;11.612;2023-12-20T03:07:09;7.20;99.90
50162;DHT22;36061;48.116;11.612;2023-12-20T03:09:38;7.10;99.90
50162;DHT22;36061;48.116;11.612;2023-12-20T03:12:05;7.20;99.90
50162;DHT22;36061;48.116;11.612;2023-12-20T03:14:34;7.10;99.90
50162;DHT22;36061;48.116;11.612;2023-12-20T03:17:01;7.10;99.90
50162;DHT22;36061;48.116;11.612;2023-12-20T03:19:28;7.10;99.90
50162;DHT22;36061;48.116;11.612;2023-12-20T03:21:56;7.20;99.90
50162;DHT22;36061;48.116;11.612;2023-12-20T03:24:23;7.10;99.90
50162;DHT22;36061;48.116;11.612;2023-12-20T03:26:50;7.20;99.90
50162;DHT22;36061;48.116;11.612;2023-12-20T03:29:18;7.30;99.90
50162;DHT22;36061;48.116;11.612;2023-12-20T03:31:47;7.30;99.90
50162;DHT22;36061;48.116;11.612;2023-12-20T03:34:14;7.30;99.90
50162;DHT22;36061;48.116;11.612;2023-12-20T03:36:40;7.20;99.90
50162;DHT22;36061;48.116;11.612;2023-12-20T03:39:07;7.30;99.90
50162;DHT22;36061;48.116;11.612;2023-12-20T03:41:36;7.30;99.90
50162;DHT22;36061;48.116;11.612;2023-12-20T03:44:03;7.30;99.90
50162;DHT22;36061;48.116;11.612;2023-12-20T03:46:31;7.30;99.90
50162;DHT22;36061;48.116;11.612;2023-12-20T03:49:00;7.20;99.90
50162;DHT22;36061;48.116;11.612;2023-12-20T03:51:27;7.30;99.90
50162;DHT22;36061;48.116;11.612;2023-12-20T03:53:54;7.30;99.90
50162;DHT22;36061;48.116;11.612;2023-12-20T03:56:22;7.30;99.90
50162;DHT22;36061;48.116;11.612;2023-12-20T03:58:49;7.30;99.90
50162;DHT22;36061;48.116;11.612;2023-12-20T04:01:16;7.30;99.90
50162;DHT22;36061;48.116;11.612;2023-12-20T04:03:44;7.30;99.90
50162;DHT22;36061;48.116;11.612;2023-12-20T04:06:17;7.30;99.90
50162;DHT22;36061;48.116;11.612;2023-12-20T04:08:45;7.20;99.90
50162;DHT22;36061;48.116;11.612;2023-12-20T04:11:12;7.10;99.90
50162;DHT22;36061;48.116;11.612;2023-12-20T04:13:39;7.10;99.90
50162;DHT22;36061;48.116;11.612;2023-12-20T04:16:07;7.10;99.90
50162;DHT22;36061;48.116;11.612;2023-12-20T04:18:34;7.10;99.90
50162;DHT22;36061;48.116;11.612;2023-12-20T04:21:02;7.00;99.90
50162;DHT22;36061;48.116;11.612;2023-12-20T04:23:31;7.00;99.90
50162;DHT22;36061;48.116;11.612;2023-12-20T04:25:58;7.00;99.90
50162;DHT22;36061;48.116;11.612;2023-12-20T04:28:26;6.90;99.90
50162;DHT22;36061;48.116;11.612;2023-12-20T04:30:56;6.90;99.90
50162;DHT22;36061;48.116;11.612;2023-12-20T04:33:23;6.80;99.90
50162;DHT22;36061;48.116;11.612;2023-12-20T04:35:50;6.80;99.90
50162;DHT22;36061;48.116;11.612;2023-12-20T04:38:18;6.80;99.90
50162;DHT22;36061;48.116;11.612;2023-12-20T04:40:47;6.80;99.90
50162;DHT22;36061;48.116;11.612;2023-12-20T04:43:14;6.80;99.90
50162;DHT22;36061;48.116;11.612;2023-12-20T04:45:41;6.70;99.90
50162;DHT22;36061;48.116;11.612;2023-12-20T04:48:09;6.60;99.90
50162;DHT22;36061;48.116;11.612;2023-12-20T04:50:36;6.60;99.90
50162;DHT22;36061;48.116;11.612;2023-12-20T04:53:03;6.60;99.90
50162;DHT22;36061;48.116;11.612;2023-12-20T04:55:31;6.60;99.90
50162;DHT22;36061;48.116;11.612;2023-12-20T04:57:59;6.60;99.90
50162;DHT22;36061;48.116;11.612;2023-12-20T05:00:27;6.60;99.90
50162;DHT22;36061;48.116;11.612;2023-12-20T05:02:54;6.50;99.90
50162;DHT22;36061;48.116;11.612;2023-12-20T05:05:21;6.60;99.90
50162;DHT22;36061;48.116;11.612;2023-12-20T05:07:49;6.60;99.90
50162;DHT22;36061;48.116;11.612;2023-12-20T05:10:16;6.50;99.90
50162;DHT22;36061;48.116;11.612;2023-12-20T05:12:44;6.50;99.90
50162;DHT22;36061;48.116;11.612;2023-12-20T05:15:13;6.40;99.90
50162;DHT22;36061;48.116;11.612;2023-12-20T05:17:40;6.30;99.90
50162;DHT22;36061;48.116;11.612;2023-12-20T05:20:08;6.30;99.90
50162;DHT22;36061;48.116;11.612;2023-12-20T05:22:36;6.30;99.90
50162;DHT22;36061;48.116;11.612;2023-12-20T05:25:05;6.30;99.90
50162;DHT22;36061;48.116;11.612;2023-12-20T05:27:33;6.20;99.90
50162;DHT22;36061;48.116;11.612;2023-12-20T05:30:00;6.30;99.90
50162;DHT22;36061;48.116;11.612;2023-12-20T05:32:29;6.20;99.90
50162;DHT22;36061;48.116;11.612;2023-12-20T05:34:57;6.10;99.90
50162;DHT22;36061;48.116;11.612;2023-12-20T05:37:24;6.10;99.90
50162;DHT22;36061;48.116;11.612;2023-12-20T05:39:51;6.10;99.90
50162;DHT22;36061;48.116;11.612;2023-12-20T05:42:19;6.10;99.90
50162;DHT22;36061;48.116;11.612;2023-12-20T05:44:46;6.10;99.90
50162;DHT22;36061;48.116;11.612;2023-12-20T05:47:13;6.00;99.90
50162;DHT22;36061;48.116;11.612;2023-12-20T05:49:42;6.00;99.90
50162;DHT22;36061;48.116;11.612;2023-12-20T05:52:10;5.90;99.90
50162;DHT22;36061;48.116;11.612;2023-12-20T05:54:37;5.80;99.90
50162;DHT22;36061;48.116;11.612;2023-12-20T05:57:04;5.80;99.90
50162;DHT22;36061;48.116;11.612;2023-12-20T05:59:32;5.70;99.90
50162;DHT22;36061;48.116;11.612;2023-12-20T06:01:59;5.70;99.90
50162;DHT22;36061;48.116;11.612;2023-12-20T06:04:26;5.70;99.90
50162;DHT22;36061;48.116;11.612;2023-12-20T06:06:55;5.70;99.90
50162;DHT22;36061;48.116;11.612;2023-12-20T06:09:22;5.70;99.90
50162;DHT22;36061;48.116;11.612;2023-12-20T06:11:50;5.70;99.90
50162;DHT22;36061;48.116;11.612;2023-12-20T06:14:17;5.60;99.90
50162;DHT22;36061;48.116;11.612;2023-12-20T06:16:45;5.60;99.90
50162;DHT22;36061;48.116;11.612;2023-12-20T06:19:12;5.50;99.90
50162;DHT22;36061;48.116;11.612;2023-12-20T06:21:40;5.50;99.90
50162;DHT22;36061;48.116;11.612;2023-12-20T06:24:09;5.50;99.90
50162;DHT22;36061;48.116;11.612;2023-12-20T06:26:36;5.50;99.90
50162;DHT22;36061;48.116;11.612;2023-12-20T06:29:04;5.40;99.90
50162;DHT22;36061;48.116;11.612;2023-12-20T06:31:31;5.40;99.90
50162;DHT22;36061;48.116;11.612;2023-12-20T06:33:59;5.20;99.90
50162;DHT22;36061;48.116;11.612;2023-12-20T06:36:26;5.20;99.90
50162;DHT22;36061;48.116;11.612;2023-12-20T06:38:54;5.30;99.90
50162;DHT22;36061;48.116;11.612;2023-12-20T06:41:22;5.60;99.90
50162;DHT22;36061;48.116;11.612;2023-12-20T06:43:50;5.80;99.90
50162;DHT22;36061;48.116;11.612;2023-12-20T06:46:17;6.00;99.90
50162;DHT22;36061;48.116;11.612;2023-12-20T06:48:45;5.90;99.90
50162;DHT22;36061;48.116;11.612;2023-12-20T06:51:14;5.60;99.90
50162;DHT22;36061;48.116;11.612;2023-12-20T06:53:41;5.40;99.90
50162;DHT22;36061;48.116;11.612;2023-12-20T06:56:09;5.30;99.90
50162;DHT22;36061;48.116;11.612;2023-12-20T06:58:38;5.20;99.90
50162;DHT22;36061;48.116;11.612;2023-12-20T07:01:11;5.10;99.90
50162;DHT22;36061;48.116;11.612;2023-12-20T07:03:41;5.00;99.90
50162;DHT22;36061;48.116;11.612;2023-12-20T07:06:08;4.90;99.90
50162;DHT22;36061;48.116;11.612;2023-12-20T07:08:36;4.90;99.90
50162;DHT22;36061;48.116;11.612;2023-12-20T07:11:03;4.90;99.90
50162;DHT22;36061;48.116;11.612;2023-12-20T07:13:31;5.00;99.90
50162;DHT22;36061;48.116;11.612;2023-12-20T07:16:00;4.90;99.90
50162;DHT22;36061;48.116;11.612;2023-12-20T07:18:27;4.80;99.90
50162;DHT22;36061;48.116;11.612;2023-12-20T07:20:55;4.90;99.90
50162;DHT22;36061;48.116;11.612;2023-12-20T07:23:22;4.90;99.90
50162;DHT22;36061;48.116;11.612;2023-12-20T07:25:49;4.90;99.90
50162;DHT22;36061;48.116;11.612;2023-12-20T07:28:16;4.80;99.90
50162;DHT22;36061;48.116;11.612;2023-12-20T07:30:44;4.80;99.90
50162;DHT22;36061;48.116;11.612;2023-12-20T07:33:13;4.70;99.90
50162;DHT22;36061;48.116;11.612;2023-12-20T07:35:40;4.80;99.90
50162;DHT22;36061;48.116;11.612;2023-12-20T07:38:08;4.80;99.90
50162;DHT22;36061;48.116;11.612;2023-12-20T07:40:35;4.90;99.90
50162;DHT22;36061;48.116;11.612;2023-12-20T07:43:03;4.90;99.90
50162;DHT22;36061;48.116;11.612;2023-12-20T07:45:30;4.80;99.90
50162;DHT22;36061;48.116;11.612;2023-12-20T07:47:58;4.90;99.90
50162;DHT22;36061;48.116;11.612;2023-12-20T07:50:26;4.80;99.90
50162;DHT22;36061;48.116;11.612;2023-12-20T07:52:54;4.80;99.90
50162;DHT22;36061;48.116;11.612;2023-12-20T07:55:21;4.80;99.90
50162;DHT22;36061;48.116;11.612;2023-12-20T07:57:48;4.80;99.90
50162;DHT22;36061;48.116;11.612;2023-12-20T08:00:17;4.70;99.90
50162;DHT22;36061;48.116;11.612;2023-12-20T08:02:45;4.70;99.90
50162;DHT22;36061;48.116;11.612;2023-12-20T08:05:12;4.80;99.90
50162;DHT22;36061;48.116;11.612;2023-12-20T08:07:41;4.80;99.90
50162;DHT22;36061;48.116;11.612;2023-12-20T08:10:09;4.80;99.90
50162;DHT22;36061;48.116;11.612;2023-12-20T08:12:37;4.80;99.90
50162;DHT22;36061;48.116;11.612;2023-12-20T08:15:06;4.80;99.90
50162;DHT22;36061;48.116;11.612;2023-12-20T08:17:34;4.80;99.90
50162;DHT22;36061;48.116;11.612;2023-12-20T08:20:01;4.80;99.90
50162;DHT22;36061;48.116;11.612;2023-12-20T08:22:29;4.80;99.90
50162;DHT22;36061;48.116;11.612;2023-12-20T08:24:57;4.90;99.90
50162;DHT22;36061;48.116;11.612;2023-12-20T08:27:25;4.80;99.90
50162;DHT22;36061;48.116;11.612;2023-12-20T08:29:53;4.80;99.90
50162;DHT22;36061;48.116;11.612;2023-12-20T08:32:20;4.80;99.90
50162;DHT22;36061;48.116;11.612;2023-12-20T08:34:47;4.80;99.90
50162;DHT22;36061;48.116;11.612;2023-12-20T08:37:15;4.70;99.90
50162;DHT22;36061;48.116;11.612;2023-12-20T08:39:43;4.70;99.90
50162;DHT22;36061;48.116;11.612;2023-12-20T08:42:12;4.70;99.90
50162;DHT22;36061;48.116;11.612;2023-12-20T08:44:39;4.70;99.90
50162;DHT22;36061;48.116;11.612;2023-12-20T08:47:06;4.70;99.90
50162;DHT22;36061;48.116;11.612;2023-12-20T08:49:34;4.70;99.90
50162;DHT22;36061;48.116;11.612;2023-12-20T08:52:01;4.80;99.90
50162;DHT22;36061;48.116;11.612;2023-12-20T08:54:28;4.80;99.90
50162;DHT22;36061;48.116;11.612;2023-12-20T08:56:56;4.70;99.90
50162;DHT22;36061;48.116;11.612;2023-12-20T08:59:24;4.80;99.90
50162;DHT22;36061;48.116;11.612;2023-12-20T09:01:52;4.80;99.90
50162;DHT22;36061;48.116;11.612;2023-12-20T09:04:20;4.80;99.90
50162;DHT22;36061;48.116;11.612;2023-12-20T09:06:48;4.70;99.90
50162;DHT22;36061;48.116;11.612;2023-12-20T09:09:15;4.70;99.90
50162;DHT22;36061;48.116;11.612;2023-12-20T09:11:42;4.70;99.90
50162;DHT22;36061;48.116;11.612;2023-12-20T09:14:12;4.80;99.90
50162;DHT22;36061;48.116;11.612;2023-12-20T09:16:40;4.90;99.90
50162;DHT22;36061;48.116;11.612;2023-12-20T09:19:08;4.90;99.90
50162;DHT22;36061;48.116;11.612;2023-12-20T09:21:35;4.90;99.90
50162;DHT22;36061;48.116;11.612;2023-12-20T09:24:03;5.00;99.90
50162;DHT22;36061;48.116;11.612;2023-12-20T09:26:30;5.00;99.90
50162;DHT22;36061;48.116;11.612;2023-12-20T09:28:57;5.00;99.90
50162;DHT22;36061;48.116;11.612;2023-12-20T09:31:24;5.00;99.90
50162;DHT22;36061;48.116;11.612;2023-12-20T09:33:54;5.00;99.90
50162;DHT22;36061;48.116;11.612;2023-12-20T09:36:21;5.00;99.90
50162;DHT22;36061;48.116;11.612;2023-12-20T09:38:48;5.10;99.90
50162;DHT22;36061;48.116;11.612;2023-12-20T09:41:17;5.10;99.90
50162;DHT22;36061;48.116;11.612;2023-12-20T09:43:44;5.10;99.90
50162;DHT22;36061;48.116;11.612;2023-12-20T09:46:15;5.10;99.90
50162;DHT22;36061;48.116;11.612;2023-12-20T09:48:44;5.10;99.90
50162;DHT22;36061;48.116;11.612;2023-12-20T09:51:13;5.00;99.90
50162;DHT22;36061;48.116;11.612;2023-12-20T09:53:43;5.00;99.90
50162;DHT22;36061;48.116;11.612;2023-12-20T09:56:11;5.00;99.90
50162;DHT22;36061;48.116;11.612;2023-12-20T09:58:39;5.00;99.90
50162;DHT22;36061;48.116;11.612;2023-12-20T10:01:07;5.00;99.90
50162;DHT22;36061;48.116;11.612;2023-12-20T10:03:41;5.00;99.90
50162;DHT22;36061;48.116;11.612;2023-12-20T10:06:09;5.10;99.90
50162;DHT22;36061;48.116;11.612;2023-12-20T10:08:37;5.10;99.90
50162;DHT22;36061;48.116;11.612;2023-12-20T10:11:05;5.10;99.90
50162;DHT22;36061;48.116;11.612;2023-12-20T10:13:32;5.10;99.90
50162;DHT22;36061;48.116;11.612;2023-12-20T10:16:00;5.10;99.90
50162;DHT22;36061;48.116;11.612;2023-12-20T10:18:29;5.20;99.90
50162;DHT22;36061;48.116;11.612;2023-12-20T10:20:57;5.20;99.90
50162;DHT22;36061;48.116;11.612;2023-12-20T10:23:24;5.20;99.90
50162;DHT22;36061;48.116;11.612;2023-12-20T10:25:57;5.30;99.90
50162;DHT22;36061;48.116;11.612;2023-12-20T10:28:25;5.40;99.90
50162;DHT22;36061;48.116;11.612;2023-12-20T10:30:54;5.40;99.90
50162;DHT22;36061;48.116;11.612;2023-12-20T10:33:26;5.40;99.90
50162;DHT22;36061;48.116;11.612;2023-12-20T10:35:55;5.40;99.90
50162;DHT22;36061;48.116;11.612;2023-12-20T10:38:22;5.40;99.90
50162;DHT22;36061;48.116;11.612;2023-12-20T10:40:54;5.30;99.90
50162;DHT22;36061;48.116;11.612;2023-12-20T10:43:25;5.30;99.90
50162;DHT22;36061;48.116;11.612;2023-12-20T10:45:53;5.40;99.90
50162;DHT22;36061;48.116;11.612;2023-12-20T10:48:21;5.40;99.90
50162;DHT22;36061;48.116;11.612;2023-12-20T10:50:56;5.50;99.90
50162;DHT22;36061;48.116;11.612;2023-12-20T10:53:24;5.50;99.90
50162;DHT22;36061;48.116;11.612;2023-12-20T10:55:52;5.50;99.90
50162;DHT22;36061;48.116;11.612;2023-12-20T10:58:22;5.50;99.90
50162;DHT22;36061;48.116;11.612;2023-12-20T11:00:58;5.50;99.90
50162;DHT22;36061;48.116;11.612;2023-12-20T11:03:28;5.50;99.90
50162;DHT22;36061;48.116;11.612;2023-12-20T11:06:03;5.60;99.90
50162;DHT22;36061;48.116;11.612;2023-12-20T11:08:36;5.60;99.90
50162;DHT22;36061;48.116;11.612;2023-12-20T11:11:09;5.60;99.90
50162;DHT22;36061;48.116;11.612;2023-12-20T11:13:44;5.60;99.90
50162;DHT22;36061;48.116;11.612;2023-12-20T11:16:16;5.60;99.90
50162;DHT22;36061;48.116;11.612;2023-12-20T11:18:45;5.60;99.90
50162;DHT22;36061;48.116;11.612;2023-12-20T11:21:12;5.60;99.90
50162;DHT22;36061;48.116;11.612;2023-12-20T11:23:42;5.50;99.90
50162;DHT22;36061;48.116;11.612;2023-12-20T11:26:08;5.50;99.90
50162;DHT22;36061;48.116;11.612;2023-12-20T11:28:36;5.50;99.90
50162;DHT22;36061;48.116;11.612;2023-12-20T11:31:03;5.50;99.90
50162;DHT22;36061;48.116;11.612;2023-12-20T11:33:36;5.50;99.90
50162;DHT22;36061;48.116;11.612;2023-12-20T11:36:07;5.50;99.90
50162;DHT22;36061;48.116;11.612;2023-12-20T11:38:53;5.50;99.90
50162;DHT22;36061;48.116;11.612;2023-12-20T11:41:22;5.60;99.90
50162;DHT22;36061;48.116;11.612;2023-12-20T11:43:53;5.60;99.90
50162;DHT22;36061;48.116;11.612;2023-12-20T11:46:21;5.60;99.90
50162;DHT22;36061;48.116;11.612;2023-12-20T11:48:50;5.60;99.90
50162;DHT22;36061;48.116;11.612;2023-12-20T11:51:18;5.60;99.90
50162;DHT22;36061;48.116;11.612;2023-12-20T11:53:50;5.60;99.90
50162;DHT22;36061;48.116;11.612;2023-12-20T11:56:18;5.70;99.90
50162;DHT22;36061;48.116;11.612;2023-12-20T11:58:46;5.70;99.90
50162;DHT22;36061;48.116;11.612;2023-12-20T12:01:14;5.70;99.90
50162;DHT22;36061;48.116;11.612;2023-12-20T12:03:43;5.80;99.90
50162;DHT22;36061;48.116;11.612;2023-12-20T12:06:12;5.80;99.90
50162;DHT22;36061;48.116;11.612;2023-12-20T12:08:40;5.90;99.90
50162;DHT22;36061;48.116;11.612;2023-12-20T12:11:08;5.90;99.90
50162;DHT22;36061;48.116;11.612;2023-12-20T12:13:36;5.90;99.90
50162;DHT22;36061;48.116;11.612;2023-12-20T12:16:04;5.90;99.90
50162;DHT22;36061;48.116;11.612;2023-12-20T12:18:31;5.90;99.90
50162;DHT22;36061;48.116;11.612;2023-12-20T12:21:02;5.90;99.90
50162;DHT22;36061;48.116;11.612;2023-12-20T12:23:31;5.90;99.90
50162;DHT22;36061;48.116;11.612;2023-12-20T12:25:59;6.00;99.90
50162;DHT22;36061;48.116;11.612;2023-12-20T12:28:26;6.00;99.90
50162;DHT22;36061;48.116;11.612;2023-12-20T12:30:58;5.80;99.90
50162;DHT22;36061;48.116;11.612;2023-12-20T12:33:26;5.90;99.90
50162;DHT22;36061;48.116;11.612;2023-12-20T12:35:53;5.90;99.90
50162;DHT22;36061;48.116;11.612;2023-12-20T12:38:22;5.90;99.90
50162;DHT22;36061;48.116;11.612;2023-12-20T12:40:52;5.90;99.90
50162;DHT22;36061;48.116;11.612;2023-12-20T12:43:20;5.80;99.90
50162;DHT22;36061;48.116;11.612;2023-12-20T12:45:48;5.90;99.90
50162;DHT22;36061;48.116;11.612;2023-12-20T12:48:16;5.90;99.90
50162;DHT22;36061;48.116;11.612;2023-12-20T12:50:43;5.80;99.90
50162;DHT22;36061;48.116;11.612;2023-12-20T12:53:10;5.80;99.90
50162;DHT22;36061;48.116;11.612;2023-12-20T12:55:38;5.80;99.90
50162;DHT22;36061;48.116;11.612;2023-12-20T12:58:07;5.70;99.90
50162;DHT22;36061;48.116;11.612;2023-12-20T13:00:34;5.70;99.90
50162;DHT22;36061;48.116;11.612;2023-12-20T13:03:01;5.70;99.90
50162;DHT22;36061;48.116;11.612;2023-12-20T13:05:29;5.70;99.90
50162;DHT22;36061;48.116;11.612;2023-12-20T13:07:57;5.70;99.90
50162;DHT22;36061;48.116;11.612;2023-12-20T13:10:25;5.70;99.90
50162;DHT22;36061;48.116;11.612;2023-12-20T13:12:52;5.70;99.90
50162;DHT22;36061;48.116;11.612;2023-12-20T13:15:21;5.70;99.90
50162;DHT22;36061;48.116;11.612;2023-12-20T13:17:48;5.70;99.90
50162;DHT22;36061;48.116;11.612;2023-12-20T13:20:16;5.70;99.90
50162;DHT22;36061;48.116;11.612;2023-12-20T13:22:43;5.70;99.90
50162;DHT22;36061;48.116;11.612;2023-12-20T13:25:11;5.60;99.90
50162;DHT22;36061;48.116;11.612;2023-12-20T13:27:38;5.40;99.90
50162;DHT22;36061;48.116;11.612;2023-12-20T13:30:06;5.30;99.90
50162;DHT22;36061;48.116;11.612;2023-12-20T13:32:35;5.30;99.90
50162;DHT22;36061;48.116;11.612;2023-12-20T13:35:03;5.20;99.90
50162;DHT22;36061;48.116;11.612;2023-12-20T13:37:30;5.20;99.90
50162;DHT22;36061;48.116;11.612;2023-12-20T13:39:58;5.10;99.90
50162;DHT22;36061;48.116;11.612;2023-12-20T13:42:25;5.10;99.90
50162;DHT22;36061;48.116;11.612;2023-12-20T13:44:53;5.00;99.90
50162;DHT22;36061;48.116;11.612;2023-12-20T13:47:21;4.90;99.90
50162;DHT22;36061;48.116;11.612;2023-12-20T13:49:50;4.90;99.90
50162;DHT22;36061;48.116;11.612;2023-12-20T13:52:18;4.90;99.90
50162;DHT22;36061;48.116;11.612;2023-12-20T13:54:45;4.90;99.90
50162;DHT22;36061;48.116;11.612;2023-12-20T13:57:13;4.90;99.90
50162;DHT22;36061;48.116;11.612;2023-12-20T13:59:39;4.90;99.90
50162;DHT22;36061;48.116;11.612;2023-12-20T14:02:07;4.80;99.90
50162;DHT22;36061;48.116;11.612;2023-12-20T14:04:34;4.90;99.90
50162;DHT22;36061;48.116;11.612;2023-12-20T14:07:03;4.90;99.90
50162;DHT22;36061;48.116;11.612;2023-12-20T14:09:30;4.90;99.90
50162;DHT22;36061;48.116;11.612;2023-12-20T14:11:58;5.00;99.90
50162;DHT22;36061;48.116;11.612;2023-12-20T14:14:25;5.00;99.90
50162;DHT22;36061;48.116;11.612;2023-12-20T14:16:52;5.00;99.90
50162;DHT22;36061;48.116;11.612;2023-12-20T14:19:20;4.90;99.90
50162;DHT22;36061;48.116;11.612;2023-12-20T14:21:47;5.00;99.90
50162;DHT22;36061;48.116;11.612;2023-12-20T14:24:16;4.90;99.90
50162;DHT22;36061;48.116;11.612;2023-12-20T14:26:43;5.00;99.90
50162;DHT22;36061;48.116;11.612;2023-12-20T14:29:11;5.00;99.90
50162;DHT22;36061;48.116;11.612;2023-12-20T14:31:38;5.00;99.90
50162;DHT22;36061;48.116;11.612;2023-12-20T14:34:06;5.10;99.90
50162;DHT22;36061;48.116;11.612;2023-12-20T14:36:34;5.10;99.90
50162;DHT22;36061;48.116;11.612;2023-12-20T14:39:02;5.00;99.90
50162;DHT22;36061;48.116;11.612;2023-12-20T14:41:31;5.00;99.90
50162;DHT22;36061;48.116;11.612;2023-12-20T14:43:59;5.00;99.90
50162;DHT22;36061;48.116;11.612;2023-12-20T14:46:27;5.00;99.90
50162;DHT22;36061;48.116;11.612;2023-12-20T14:48:54;5.00;99.90
50162;DHT22;36061;48.116;11.612;2023-12-20T14:51:21;4.90;99.90
50162;DHT22;36061;48.116;11.612;2023-12-20T14:53:49;4.90;99.90
50162;DHT22;36061;48.116;11.612;2023-12-20T14:56:16;4.80;99.90
50162;DHT22;36061;48.116;11.612;2023-12-20T14:58:45;4.80;99.90
50162;DHT22;36061;48.116;11.612;2023-12-20T15:01:13;4.80;99.90
50162;DHT22;36061;48.116;11.612;2023-12-20T15:03:43;4.80;99.90
50162;DHT22;36061;48.116;11.612;2023-12-20T15:06:11;4.80;99.90
50162;DHT22;36061;48.116;11.612;2023-12-20T15:08:38;4.80;99.90
50162;DHT22;36061;48.116;11.612;2023-12-20T15:11:05;4.80;99.90
50162;DHT22;36061;48.116;11.612;2023-12-20T15:13:33;4.80;99.90
50162;DHT22;36061;48.116;11.612;2023-12-20T15:16:01;4.80;99.90
50162;DHT22;36061;48.116;11.612;2023-12-20T15:18:30;4.80;99.90
50162;DHT22;36061;48.116;11.612;2023-12-20T15:20:58;4.80;99.90
50162;DHT22;36061;48.116;11.612;2023-12-20T15:23:25;4.80;99.90
50162;DHT22;36061;48.116;11.612;2023-12-20T15:25:54;4.80;99.90
50162;DHT22;36061;48.116;11.612;2023-12-20T15:28:22;4.80;99.90
50162;DHT22;36061;48.116;11.612;2023-12-20T15:30:49;4.80;99.90
50162;DHT22;36061;48.116;11.612;2023-12-20T15:33:18;4.80;99.90
50162;DHT22;36061;48.116;11.612;2023-12-20T15:35:45;4.80;99.90